UKHH/HRK METAR and TAF weather

Enter ICAO airport designator
Station Type Date Time Source
UKHH METAR 2019/08/18 19:00 UTC NOAA

UKHH 181900Z 34001MPS CAVOK 16/13 Q1015 R25/0///81 NOSIG


Station Type Date Time Source
UKHH Decoded METAR 2019/08/18 19:00 UTC NOAA

Station name not available
Aug 18, 2019 - 03:00 PM EDT / 2019.08.18 1900 UTC
Wind: from the NNW (340 degrees) at 2 MPH (2 KT):0
Visibility: greater than 7 mile(s):0
Temperature: 60 F (16 C)
Dew Point: 55 F (13 C)
Relative Humidity: 82%
Pressure (altimeter): 29.97 in. Hg (1015 hPa)
ob: UKHH 181900Z 34001MPS CAVOK 16/13 Q1015 R25/0///81 NOSIG
cycle: 19

Station Type Date Time Source
UKHH TAF 2019/08/18 18:24 UTC NOAA

TAF UKHH 181702Z 1818/1918 29003MPS 6000 BKN020
BECMG 1821/1823 2100 BR BKN007 PROB40
TEMPO 1900/1906 0600 FG VV002

Example: see airport list